Saturday, May 26, 2018, 5:16 AM CDT
Back to Local

KIKK, Kankakee, Greater Kankakee Airport

Location: Kankakee, IL, United States Lat: 41.071
Local Time: 5:16 AM CDT (10:16 GMT) Lon: -87.846
Time Zone: US/Central Elev: 629 ft

Show me the last for .
Show Decoded

2018-05-26 04:55 METAR KIKK 260955Z AUTO 29003KT 10SM SCT010 BKN100 19/19 A2979 RMK AO2 T01930190
                 =
2018-05-26 04:35 METAR KIKK 260935Z AUTO 28003KT 10SM BKN110 20/19 A2979 RMK AO2 T01950190 =
2018-05-26 04:15 METAR KIKK 260915Z AUTO 28003KT 10SM SCT120 19/19 A2979 RMK AO2 T01920188 =
2018-05-26 03:55 METAR KIKK 260855Z AUTO 24004KT 10SM SCT028 SCT110 19/19 A2979 RMK AO2 T01900186
                 =
2018-05-26 03:35 METAR KIKK 260835Z AUTO 24003KT 10SM SCT028 20/19 A2979 RMK AO2 T01950190 =
2018-05-26 03:15 METAR KIKK 260815Z AUTO 27005KT 10SM CLR 20/19 A2979 RMK AO2 T02000190 =
2018-05-26 02:55 METAR KIKK 260755Z AUTO 21006KT 10SM CLR 20/19 A2979 RMK AO2 T02010191 =
2018-05-26 02:35 METAR KIKK 260735Z AUTO 00000KT 10SM SCT047 20/19 A2979 RMK AO2 T01970191 =
2018-05-26 02:15 METAR KIKK 260715Z AUTO 00000KT 10SM CLR 20/19 A2979 RMK AO2 T02010190 =
2018-05-26 01:55 METAR KIKK 260655Z AUTO 00000KT 10SM SCT100 20/19 A2979 RMK AO2 T02020190 =
2018-05-26 01:35 METAR KIKK 260635Z AUTO 17003KT 10SM OVC100 20/19 A2979 RMK AO2 T02010194 =
2018-05-26 01:15 METAR KIKK 260615Z AUTO 00000KT 10SM OVC100 20/19 A2981 RMK AO2 T02030193 =
2018-05-26 00:55 METAR KIKK 260555Z AUTO 00000KT 10SM SCT100 20/18 A2980 RMK AO2 60001 T01960184
                 10247 20195 403200165 =
2018-05-26 00:35 METAR KIKK 260535Z AUTO 00000KT 10SM CLR 21/18 A2980 RMK AO2 T02080180 =
2018-05-26 00:15 METAR KIKK 260515Z AUTO 00000KT 10SM -DZ SCT100 BKN120 21/19 A2981 RMK AO2
                 T02070185 =
2018-05-25 23:55 METAR KIKK 260455Z AUTO 17003KT 10SM -RA SCT100 BKN120 21/19 A2982 RMK AO2 P0001
                 T02100189 =
2018-05-25 23:35 METAR KIKK 260435Z AUTO 20005KT 10SM -RA BKN120 21/19 A2983 RMK AO2 P0001
                 T02090193 =
2018-05-25 23:15 METAR KIKK 260415Z AUTO 20007KT 10SM DZ OVC110 21/20 A2984 RMK AO2 LTG DSNT SW
                 T02100196 =
2018-05-25 22:55 METAR KIKK 260355Z AUTO 22004KT 10SM -DZ BKN100 OVC120 21/20 A2984 RMK AO2
                 T02130197 =
2018-05-25 22:35 METAR KIKK 260335Z AUTO 25005KT 10SM -DZ OVC110 21/20 A2985 RMK AO2 T02120197 =
2018-05-25 22:15 METAR KIKK 260315Z AUTO 24008KT 10SM -RA BKN120 22/19 A2985 RMK AO2 T02160191 =
2018-05-25 21:55 METAR KIKK 260255Z AUTO 26009KT 10SM DZ SCT080 BKN120 22/19 A2986 RMK AO2
                 T02190193 =
2018-05-25 21:35 METAR KIKK 260235Z AUTO 26012G18KT 10SM -RA SCT070 BKN080 OVC120 23/18 A2985 RMK
                 AO2 T02330184 =
2018-05-25 21:15 METAR KIKK 260215Z AUTO 26011G15KT 10SM BKN080 BKN090 24/17 A2984 RMK AO2
                 T02380174 =
2018-05-25 20:55 METAR KIKK 260155Z AUTO 00000KT 10SM SCT090 SCT110 24/18 A2980 RMK AO2 LTG DSNT
                 SW T02390177 =
2018-05-25 20:35 METAR KIKK 260135Z AUTO 00000KT 10SM BKN100 OVC110 24/18 A2979 RMK AO2 LTG DSNT
                 SW T02350178 =
2018-05-25 20:15 METAR KIKK 260115Z AUTO 00000KT 10SM BKN100 OVC120 24/18 A2979 RMK AO2 T02410177
                 =
2018-05-25 19:55 METAR KIKK 260055Z AUTO 00000KT 10SM OVC100 25/18 A2979 RMK AO2 T02450176 =
2018-05-25 19:35 METAR KIKK 260035Z AUTO 00000KT 10SM OVC110 25/18 A2979 RMK AO2 T02450177 =
2018-05-25 19:15 METAR KIKK 260015Z AUTO 28005KT 10SM BKN120 24/18 A2979 RMK AO2 LTG DSNT SW
                 T02440177 =
2018-05-25 18:55 METAR KIKK 252355Z AUTO 29008KT 10SM SCT110 25/18 A2979 RMK AO2 T02470176 10320
                 20247 =
2018-05-25 18:35 METAR KIKK 252335Z AUTO 30007KT 10SM BKN120 25/18 A2980 RMK AO2 T02500180 =
2018-05-25 18:15 METAR KIKK 252315Z AUTO 29014G17KT 10SM SCT110 26/18 A2981 RMK AO2 T02550182 =
2018-05-25 17:55 METAR KIKK 252255Z AUTO 30015G21KT 10SM OVC100 26/18 A2981 RMK AO2 T02580180 =
2018-05-25 17:35 METAR KIKK 252235Z AUTO 29014G19KT 10SM OVC090 28/17 A2980 RMK AO2 T02750174 =
2018-05-25 17:15 METAR KIKK 252215Z AUTO 20005KT 10SM SCT100 OVC120 30/14 A2980 RMK AO2 T03030138
                 =
2018-05-25 16:55 METAR KIKK 252155Z AUTO 22006KT 10SM SCT090 OVC120 31/13 A2980 RMK AO2 T03050130
                 =
2018-05-25 16:35 METAR KIKK 252135Z AUTO 19004KT 10SM SCT090 SCT120 31/13 A2981 RMK AO2 T03100128
                 =
2018-05-25 16:15 METAR KIKK 252115Z AUTO 16006KT 10SM CLR 31/13 A2981 RMK AO2 T03100128 =
2018-05-25 15:55 METAR KIKK 252055Z AUTO 17006KT 10SM SCT110 31/13 A2982 RMK AO2 T03130131 =
2018-05-25 15:35 METAR KIKK 252035Z AUTO 20005KT 10SM SCT080 SCT110 32/13 A2983 RMK AO2 T03150127
                 =
2018-05-25 15:15 METAR KIKK 252015Z AUTO 17003KT 10SM SCT080 BKN100 31/13 A2983 RMK AO2 T03100126
                 =
2018-05-25 14:55 METAR KIKK 251955Z AUTO 20005G14KT 10SM SCT080 SCT100 31/12 A2984 RMK AO2 LTG
                 DSNT S T03120122 =
2018-05-25 14:35 METAR KIKK 251935Z AUTO 21005G08KT 10SM SCT100 32/13 A2986 RMK AO2 T03170134 =
2018-05-25 14:15 METAR KIKK 251915Z AUTO 17007KT 10SM BKN090 31/13 A2986 RMK AO2 T03120134 =
2018-05-25 13:55 METAR KIKK 251855Z AUTO 23008KT 10SM BKN080 31/13 A2987 RMK AO2 T03130133 =
2018-05-25 13:35 METAR KIKK 251835Z AUTO 24006KT 10SM SCT080 SCT100 31/13 A2988 RMK AO2 T03120134
                 =
2018-05-25 13:15 METAR KIKK 251815Z AUTO 24004KT 10SM SCT080 31/14 A2989 RMK AO2 T03070144 =
2018-05-25 12:55 METAR KIKK 251755Z AUTO 16005KT 10SM CLR 31/14 A2990 RMK AO2 T03090137 10310
                 20189 =
2018-05-25 12:35 METAR KIKK 251735Z AUTO 18006KT 10SM CLR 31/14 A2992 RMK AO2 T03090141 =
2018-05-25 12:15 METAR KIKK 251715Z AUTO 25010KT 10SM SCT070 SCT090 31/14 A2992 RMK AO2 LTG DSNT
                 SW T03060140 =
2018-05-25 11:55 METAR KIKK 251655Z AUTO 23007KT 10SM BKN070 BKN090 30/14 A2993 RMK AO2 T03030140
                 =
2018-05-25 11:35 METAR KIKK 251635Z AUTO 24004KT 10SM SCT070 30/14 A2994 RMK AO2 T03010143 =
2018-05-25 11:15 METAR KIKK 251615Z AUTO 24006KT 10SM CLR 30/15 A2994 RMK AO2 T02980151 =
2018-05-25 10:55 METAR KIKK 251555Z AUTO 22009KT 10SM CLR 30/14 A2994 RMK AO2 T02950139 =
2018-05-25 10:35 METAR KIKK 251535Z AUTO 23007KT 10SM CLR 29/14 A2995 RMK AO2 T02930135 =
2018-05-25 10:15 METAR KIKK 251515Z AUTO 23007KT 10SM CLR 29/13 A2995 RMK AO2 T02880133 =
2018-05-25 09:55 METAR KIKK 251455Z AUTO 21007KT 10SM CLR 28/14 A2996 RMK AO2 T02840139 =
2018-05-25 09:35 METAR KIKK 251435Z AUTO 23006KT 10SM CLR 28/14 A2996 RMK AO2 T02760142 =
2018-05-25 09:15 METAR KIKK 251415Z AUTO 21005KT 10SM CLR 27/14 A2997 RMK AO2 T02670140 =
2018-05-25 08:55 METAR KIKK 251355Z AUTO 22004KT 10SM CLR 26/14 A2997 RMK AO2 T02590138 =
2018-05-25 08:35 METAR KIKK 251335Z AUTO 20004KT 10SM CLR 25/14 A2999 RMK AO2 T02490140 =
2018-05-25 08:15 METAR KIKK 251315Z AUTO 21006KT 10SM CLR 24/14 A2999 RMK AO2 T02410138 =
2018-05-25 07:55 METAR KIKK 251255Z AUTO 21007KT 10SM CLR 23/13 A2998 RMK AO2 T02290134 =
2018-05-25 07:35 METAR KIKK 251235Z AUTO 20005KT 10SM CLR 22/13 A2999 RMK AO2 T02170132 =
2018-05-25 07:15 METAR KIKK 251215Z AUTO 19005KT 10SM CLR 21/13 A2999 RMK AO2 T02050131 =
2018-05-25 06:55 METAR KIKK 251155Z AUTO 15003KT 10SM CLR 19/14 A2999 RMK AO2 T01870137 10206
                 20165 =
2018-05-25 06:35 METAR KIKK 251135Z AUTO 15004KT 10SM CLR 17/13 A2999 RMK AO2 T01740130 =
2018-05-25 06:15 METAR KIKK 251115Z AUTO 14004KT 10SM CLR 17/12 A2999 RMK AO2 T01650123 =
2018-05-25 05:55 METAR KIKK 251055Z AUTO 00000KT 10SM CLR 17/12 A2999 RMK AO2 T01660117 =
2018-05-25 05:35 METAR KIKK 251035Z AUTO 16003KT 10SM CLR 17/12 A2999 RMK AO2 T01710116 =

Support USWX by starting your Amazon purchase here.